sensor_id;sensor_type;location;lat;lon;timestamp;temperature;humidity
13798;DHT22;6970;51.340;3.240;2024-01-30T00:02:08;11.60;99.90
13798;DHT22;6970;51.340;3.240;2024-01-30T00:04:36;11.60;99.90
13798;DHT22;6970;51.340;3.240;2024-01-30T00:07:03;11.60;99.90
13798;DHT22;6970;51.340;3.240;2024-01-30T00:09:32;11.60;99.90
13798;DHT22;6970;51.340;3.240;2024-01-30T00:12:00;11.60;99.90
13798;DHT22;6970;51.340;3.240;2024-01-30T00:14:28;11.60;99.90
13798;DHT22;6970;51.340;3.240;2024-01-30T00:16:58;11.60;99.90
13798;DHT22;6970;51.340;3.240;2024-01-30T00:19:25;11.60;99.90
13798;DHT22;6970;51.340;3.240;2024-01-30T00:21:53;11.60;99.90
13798;DHT22;6970;51.340;3.240;2024-01-30T00:24:23;11.60;99.90
13798;DHT22;6970;51.340;3.240;2024-01-30T00:26:52;11.60;99.90
13798;DHT22;6970;51.340;3.240;2024-01-30T00:29:19;11.60;99.90
13798;DHT22;6970;51.340;3.240;2024-01-30T00:31:47;11.60;99.90
13798;DHT22;6970;51.340;3.240;2024-01-30T00:34:15;11.60;99.90
13798;DHT22;6970;51.340;3.240;2024-01-30T00:36:44;11.60;99.90
13798;DHT22;6970;51.340;3.240;2024-01-30T00:39:14;11.60;99.90
13798;DHT22;6970;51.340;3.240;2024-01-30T00:41:43;11.60;99.90
13798;DHT22;6970;51.340;3.240;2024-01-30T00:44:13;11.60;99.90
13798;DHT22;6970;51.340;3.240;2024-01-30T00:46:43;11.50;99.90
13798;DHT22;6970;51.340;3.240;2024-01-30T00:49:13;11.50;99.90
13798;DHT22;6970;51.340;3.240;2024-01-30T00:51:42;11.50;99.90
13798;DHT22;6970;51.340;3.240;2024-01-30T00:54:12;11.50;99.90
13798;DHT22;6970;51.340;3.240;2024-01-30T00:56:41;11.50;99.90
13798;DHT22;6970;51.340;3.240;2024-01-30T00:59:11;11.50;99.90
13798;DHT22;6970;51.340;3.240;2024-01-30T01:01:41;11.50;99.90
13798;DHT22;6970;51.340;3.240;2024-01-30T01:04:11;11.50;99.90
13798;DHT22;6970;51.340;3.240;2024-01-30T01:06:42;11.50;99.90
13798;DHT22;6970;51.340;3.240;2024-01-30T01:09:12;11.50;99.90
13798;DHT22;6970;51.340;3.240;2024-01-30T01:11:39;11.50;99.90
13798;DHT22;6970;51.340;3.240;2024-01-30T01:14:10;11.50;99.90
13798;DHT22;6970;51.340;3.240;2024-01-30T01:16:38;11.50;99.90
13798;DHT22;6970;51.340;3.240;2024-01-30T01:19:08;11.50;99.90
13798;DHT22;6970;51.340;3.240;2024-01-30T01:21:38;11.40;99.90
13798;DHT22;6970;51.340;3.240;2024-01-30T01:24:12;11.50;99.90
13798;DHT22;6970;51.340;3.240;2024-01-30T01:26:42;11.40;99.90
13798;DHT22;6970;51.340;3.240;2024-01-30T01:29:12;11.40;99.90
13798;DHT22;6970;51.340;3.240;2024-01-30T01:31:39;11.40;99.90
13798;DHT22;6970;51.340;3.240;2024-01-30T01:34:11;11.40;99.90
13798;DHT22;6970;51.340;3.240;2024-01-30T01:36:39;11.40;99.90
13798;DHT22;6970;51.340;3.240;2024-01-30T01:39:07;11.40;99.90
13798;DHT22;6970;51.340;3.240;2024-01-30T01:41:38;11.40;99.90
13798;DHT22;6970;51.340;3.240;2024-01-30T01:44:09;11.40;99.90
13798;DHT22;6970;51.340;3.240;2024-01-30T01:46:39;11.40;99.90
13798;DHT22;6970;51.340;3.240;2024-01-30T01:49:09;11.40;99.90
13798;DHT22;6970;51.340;3.240;2024-01-30T01:51:39;11.40;99.90
13798;DHT22;6970;51.340;3.240;2024-01-30T01:54:08;11.40;99.90
13798;DHT22;6970;51.340;3.240;2024-01-30T01:56:36;11.40;99.90
13798;DHT22;6970;51.340;3.240;2024-01-30T01:59:07;11.40;99.90
13798;DHT22;6970;51.340;3.240;2024-01-30T02:01:37;11.40;99.90
13798;DHT22;6970;51.340;3.240;2024-01-30T02:04:06;11.40;99.90
13798;DHT22;6970;51.340;3.240;2024-01-30T02:06:34;11.40;99.90
13798;DHT22;6970;51.340;3.240;2024-01-30T02:09:05;11.30;99.90
13798;DHT22;6970;51.340;3.240;2024-01-30T02:11:35;11.30;99.90
13798;DHT22;6970;51.340;3.240;2024-01-30T02:14:05;11.30;99.90
13798;DHT22;6970;51.340;3.240;2024-01-30T02:16:35;11.30;99.90
13798;DHT22;6970;51.340;3.240;2024-01-30T02:19:05;11.30;99.90
13798;DHT22;6970;51.340;3.240;2024-01-30T02:21:34;11.30;99.90
13798;DHT22;6970;51.340;3.240;2024-01-30T02:24:03;11.20;99.90
13798;DHT22;6970;51.340;3.240;2024-01-30T02:26:33;11.20;99.90
13798;DHT22;6970;51.340;3.240;2024-01-30T02:29:02;11.20;99.90
13798;DHT22;6970;51.340;3.240;2024-01-30T02:31:30;11.20;99.90
13798;DHT22;6970;51.340;3.240;2024-01-30T02:34:00;11.20;99.90
13798;DHT22;6970;51.340;3.240;2024-01-30T02:36:30;11.20;99.90
13798;DHT22;6970;51.340;3.240;2024-01-30T02:38:59;11.20;99.90
13798;DHT22;6970;51.340;3.240;2024-01-30T02:41:29;11.30;99.90
13798;DHT22;6970;51.340;3.240;2024-01-30T02:43:56;11.30;99.90
13798;DHT22;6970;51.340;3.240;2024-01-30T02:46:29;11.30;99.90
13798;DHT22;6970;51.340;3.240;2024-01-30T02:48:57;11.30;99.90
13798;DHT22;6970;51.340;3.240;2024-01-30T02:51:27;11.30;99.90
13798;DHT22;6970;51.340;3.240;2024-01-30T02:53:56;11.30;99.90
13798;DHT22;6970;51.340;3.240;2024-01-30T02:56:24;11.30;99.90
13798;DHT22;6970;51.340;3.240;2024-01-30T02:58:52;11.40;99.90
13798;DHT22;6970;51.340;3.240;2024-01-30T03:01:21;11.40;99.90
13798;DHT22;6970;51.340;3.240;2024-01-30T03:03:51;11.40;99.90
13798;DHT22;6970;51.340;3.240;2024-01-30T03:06:22;11.40;99.90
13798;DHT22;6970;51.340;3.240;2024-01-30T03:08:49;11.40;99.90
13798;DHT22;6970;51.340;3.240;2024-01-30T03:11:17;11.40;99.90
13798;DHT22;6970;51.340;3.240;2024-01-30T03:13:45;11.40;99.90
13798;DHT22;6970;51.340;3.240;2024-01-30T03:16:15;11.40;99.90
13798;DHT22;6970;51.340;3.240;2024-01-30T03:18:45;11.30;99.90
13798;DHT22;6970;51.340;3.240;2024-01-30T03:21:14;11.30;99.90
13798;DHT22;6970;51.340;3.240;2024-01-30T03:23:43;11.30;99.90
13798;DHT22;6970;51.340;3.240;2024-01-30T03:26:10;11.30;99.90
13798;DHT22;6970;51.340;3.240;2024-01-30T03:28:41;11.30;99.90
13798;DHT22;6970;51.340;3.240;2024-01-30T03:31:09;11.20;99.90
13798;DHT22;6970;51.340;3.240;2024-01-30T03:33:36;11.20;99.90
13798;DHT22;6970;51.340;3.240;2024-01-30T03:36:08;11.20;99.90
13798;DHT22;6970;51.340;3.240;2024-01-30T03:38:37;11.20;99.90
13798;DHT22;6970;51.340;3.240;2024-01-30T03:41:10;11.30;99.90
13798;DHT22;6970;51.340;3.240;2024-01-30T03:43:40;11.20;99.90
13798;DHT22;6970;51.340;3.240;2024-01-30T03:46:07;11.20;99.90
13798;DHT22;6970;51.340;3.240;2024-01-30T03:48:35;11.20;99.90
13798;DHT22;6970;51.340;3.240;2024-01-30T03:51:04;11.30;99.90
13798;DHT22;6970;51.340;3.240;2024-01-30T03:53:31;11.30;99.90
13798;DHT22;6970;51.340;3.240;2024-01-30T03:55:58;11.30;99.90
13798;DHT22;6970;51.340;3.240;2024-01-30T03:58:25;11.30;99.90
13798;DHT22;6970;51.340;3.240;2024-01-30T04:00:52;11.40;99.90
13798;DHT22;6970;51.340;3.240;2024-01-30T04:03:21;11.40;99.90
13798;DHT22;6970;51.340;3.240;2024-01-30T04:05:52;11.40;99.90
13798;DHT22;6970;51.340;3.240;2024-01-30T04:08:20;11.50;99.90
13798;DHT22;6970;51.340;3.240;2024-01-30T04:10:49;11.40;99.90
13798;DHT22;6970;51.340;3.240;2024-01-30T04:13:18;11.50;99.90
13798;DHT22;6970;51.340;3.240;2024-01-30T04:15:45;11.50;99.90
13798;DHT22;6970;51.340;3.240;2024-01-30T04:18:15;11.50;99.90
13798;DHT22;6970;51.340;3.240;2024-01-30T04:20:45;11.50;99.90
13798;DHT22;6970;51.340;3.240;2024-01-30T04:23:15;11.50;99.90
13798;DHT22;6970;51.340;3.240;2024-01-30T04:25:45;11.50;99.90
13798;DHT22;6970;51.340;3.240;2024-01-30T04:28:12;11.50;99.90
13798;DHT22;6970;51.340;3.240;2024-01-30T04:30:40;11.50;99.90
13798;DHT22;6970;51.340;3.240;2024-01-30T04:33:18;11.60;99.90
13798;DHT22;6970;51.340;3.240;2024-01-30T04:35:45;11.60;99.90
13798;DHT22;6970;51.340;3.240;2024-01-30T04:38:15;11.60;99.90
13798;DHT22;6970;51.340;3.240;2024-01-30T04:40:43;11.70;99.90
13798;DHT22;6970;51.340;3.240;2024-01-30T04:43:12;11.70;99.90
13798;DHT22;6970;51.340;3.240;2024-01-30T04:45:41;11.70;99.90
13798;DHT22;6970;51.340;3.240;2024-01-30T04:48:08;11.80;99.90
13798;DHT22;6970;51.340;3.240;2024-01-30T04:50:35;11.80;99.90
13798;DHT22;6970;51.340;3.240;2024-01-30T04:53:03;11.80;99.90
13798;DHT22;6970;51.340;3.240;2024-01-30T04:55:30;11.80;99.90
13798;DHT22;6970;51.340;3.240;2024-01-30T04:58:00;11.80;99.90
13798;DHT22;6970;51.340;3.240;2024-01-30T05:00:28;11.90;99.90
13798;DHT22;6970;51.340;3.240;2024-01-30T05:02:56;11.90;99.90
13798;DHT22;6970;51.340;3.240;2024-01-30T05:05:24;11.90;99.90
13798;DHT22;6970;51.340;3.240;2024-01-30T05:07:51;11.90;99.90
13798;DHT22;6970;51.340;3.240;2024-01-30T05:10:21;11.90;99.90
13798;DHT22;6970;51.340;3.240;2024-01-30T05:12:48;11.90;99.90
13798;DHT22;6970;51.340;3.240;2024-01-30T05:15:17;11.90;99.90
13798;DHT22;6970;51.340;3.240;2024-01-30T05:17:44;11.90;99.90
13798;DHT22;6970;51.340;3.240;2024-01-30T05:20:14;12.00;99.90
13798;DHT22;6970;51.340;3.240;2024-01-30T05:22:43;12.00;99.90
13798;DHT22;6970;51.340;3.240;2024-01-30T05:25:18;12.00;99.90
13798;DHT22;6970;51.340;3.240;2024-01-30T05:27:49;12.00;99.90
13798;DHT22;6970;51.340;3.240;2024-01-30T05:30:17;12.00;99.90
13798;DHT22;6970;51.340;3.240;2024-01-30T05:32:46;12.00;99.90
13798;DHT22;6970;51.340;3.240;2024-01-30T05:35:14;12.00;99.90
13798;DHT22;6970;51.340;3.240;2024-01-30T05:37:44;12.00;99.90
13798;DHT22;6970;51.340;3.240;2024-01-30T05:40:12;12.00;99.90
13798;DHT22;6970;51.340;3.240;2024-01-30T05:42:42;11.90;99.90
13798;DHT22;6970;51.340;3.240;2024-01-30T05:45:13;12.00;99.90
13798;DHT22;6970;51.340;3.240;2024-01-30T05:47:41;12.00;99.90
13798;DHT22;6970;51.340;3.240;2024-01-30T05:50:11;12.00;99.90
13798;DHT22;6970;51.340;3.240;2024-01-30T05:52:41;12.00;99.90
13798;DHT22;6970;51.340;3.240;2024-01-30T05:55:12;12.00;99.90
13798;DHT22;6970;51.340;3.240;2024-01-30T05:57:42;12.00;99.90
13798;DHT22;6970;51.340;3.240;2024-01-30T06:00:11;12.00;99.90
13798;DHT22;6970;51.340;3.240;2024-01-30T06:02:39;12.00;99.90
13798;DHT22;6970;51.340;3.240;2024-01-30T06:05:07;12.00;99.90
13798;DHT22;6970;51.340;3.240;2024-01-30T06:07:38;12.00;99.90
13798;DHT22;6970;51.340;3.240;2024-01-30T06:10:06;12.00;99.90
13798;DHT22;6970;51.340;3.240;2024-01-30T06:12:35;12.00;99.90
13798;DHT22;6970;51.340;3.240;2024-01-30T06:15:06;12.00;99.90
13798;DHT22;6970;51.340;3.240;2024-01-30T06:17:34;11.90;99.90
13798;DHT22;6970;51.340;3.240;2024-01-30T06:20:05;11.90;99.90
13798;DHT22;6970;51.340;3.240;2024-01-30T06:22:33;11.90;99.90
13798;DHT22;6970;51.340;3.240;2024-01-30T06:25:04;11.90;99.90
13798;DHT22;6970;51.340;3.240;2024-01-30T06:27:32;11.80;99.90
13798;DHT22;6970;51.340;3.240;2024-01-30T06:29:59;11.80;99.90
13798;DHT22;6970;51.340;3.240;2024-01-30T06:32:27;11.70;99.90
13798;DHT22;6970;51.340;3.240;2024-01-30T06:34:55;11.70;99.90
13798;DHT22;6970;51.340;3.240;2024-01-30T06:37:23;11.70;99.90
13798;DHT22;6970;51.340;3.240;2024-01-30T06:39:51;11.70;99.90
13798;DHT22;6970;51.340;3.240;2024-01-30T06:42:19;11.70;99.90
13798;DHT22;6970;51.340;3.240;2024-01-30T06:44:46;11.70;99.90
13798;DHT22;6970;51.340;3.240;2024-01-30T06:47:15;11.60;99.90
13798;DHT22;6970;51.340;3.240;2024-01-30T06:49:43;11.60;99.90
13798;DHT22;6970;51.340;3.240;2024-01-30T06:52:11;11.60;99.90
13798;DHT22;6970;51.340;3.240;2024-01-30T06:54:39;11.60;99.90
13798;DHT22;6970;51.340;3.240;2024-01-30T06:57:06;11.60;99.90
13798;DHT22;6970;51.340;3.240;2024-01-30T06:59:38;11.50;99.90
13798;DHT22;6970;51.340;3.240;2024-01-30T07:02:12;11.50;99.90
13798;DHT22;6970;51.340;3.240;2024-01-30T07:04:41;11.50;99.90
13798;DHT22;6970;51.340;3.240;2024-01-30T07:07:13;11.50;99.90
13798;DHT22;6970;51.340;3.240;2024-01-30T07:09:45;11.50;99.90
13798;DHT22;6970;51.340;3.240;2024-01-30T07:12:15;11.50;99.90
13798;DHT22;6970;51.340;3.240;2024-01-30T07:14:44;11.50;99.90
13798;DHT22;6970;51.340;3.240;2024-01-30T07:17:13;11.50;99.90
13798;DHT22;6970;51.340;3.240;2024-01-30T07:19:40;11.50;99.90
13798;DHT22;6970;51.340;3.240;2024-01-30T07:22:10;11.50;99.90
13798;DHT22;6970;51.340;3.240;2024-01-30T07:24:45;11.50;99.90
13798;DHT22;6970;51.340;3.240;2024-01-30T07:27:16;11.50;99.90
13798;DHT22;6970;51.340;3.240;2024-01-30T07:29:44;11.40;99.90
13798;DHT22;6970;51.340;3.240;2024-01-30T07:32:11;11.40;99.90
13798;DHT22;6970;51.340;3.240;2024-01-30T07:34:42;11.40;99.90
13798;DHT22;6970;51.340;3.240;2024-01-30T07:37:29;11.40;99.90
13798;DHT22;6970;51.340;3.240;2024-01-30T07:39:56;11.40;99.90
13798;DHT22;6970;51.340;3.240;2024-01-30T07:42:24;11.30;99.90
13798;DHT22;6970;51.340;3.240;2024-01-30T07:44:53;11.40;99.90
13798;DHT22;6970;51.340;3.240;2024-01-30T07:47:23;11.30;99.90
13798;DHT22;6970;51.340;3.240;2024-01-30T07:49:50;11.30;99.90
13798;DHT22;6970;51.340;3.240;2024-01-30T07:52:18;11.30;99.90
13798;DHT22;6970;51.340;3.240;2024-01-30T07:54:45;11.30;99.90
13798;DHT22;6970;51.340;3.240;2024-01-30T07:57:13;11.30;99.90
13798;DHT22;6970;51.340;3.240;2024-01-30T07:59:44;11.20;99.90
13798;DHT22;6970;51.340;3.240;2024-01-30T08:02:15;11.30;99.90
13798;DHT22;6970;51.340;3.240;2024-01-30T08:04:42;11.20;99.90
13798;DHT22;6970;51.340;3.240;2024-01-30T08:07:09;11.20;99.90
13798;DHT22;6970;51.340;3.240;2024-01-30T08:09:37;11.20;99.90
13798;DHT22;6970;51.340;3.240;2024-01-30T08:12:04;11.20;99.90
13798;DHT22;6970;51.340;3.240;2024-01-30T08:14:37;11.20;99.90
13798;DHT22;6970;51.340;3.240;2024-01-30T08:17:07;11.20;99.90
13798;DHT22;6970;51.340;3.240;2024-01-30T08:19:37;11.20;99.90
13798;DHT22;6970;51.340;3.240;2024-01-30T08:22:06;11.20;99.90
13798;DHT22;6970;51.340;3.240;2024-01-30T08:24:34;11.20;99.90
13798;DHT22;6970;51.340;3.240;2024-01-30T08:27:02;11.20;99.90
13798;DHT22;6970;51.340;3.240;2024-01-30T08:29:30;11.20;99.90
13798;DHT22;6970;51.340;3.240;2024-01-30T08:32:00;11.20;99.90
13798;DHT22;6970;51.340;3.240;2024-01-30T08:34:28;11.20;99.90
13798;DHT22;6970;51.340;3.240;2024-01-30T08:36:57;11.20;99.90
13798;DHT22;6970;51.340;3.240;2024-01-30T08:39:26;11.20;99.90
13798;DHT22;6970;51.340;3.240;2024-01-30T08:41:55;11.30;99.90
13798;DHT22;6970;51.340;3.240;2024-01-30T08:44:22;11.50;99.90
13798;DHT22;6970;51.340;3.240;2024-01-30T08:47:00;11.60;99.90
13798;DHT22;6970;51.340;3.240;2024-01-30T08:49:31;11.60;99.90
13798;DHT22;6970;51.340;3.240;2024-01-30T08:52:01;11.70;99.90
13798;DHT22;6970;51.340;3.240;2024-01-30T08:54:29;11.50;99.90
13798;DHT22;6970;51.340;3.240;2024-01-30T08:57:02;11.60;99.90
13798;DHT22;6970;51.340;3.240;2024-01-30T08:59:32;12.10;99.90
13798;DHT22;6970;51.340;3.240;2024-01-30T09:02:01;12.20;99.90
13798;DHT22;6970;51.340;3.240;2024-01-30T09:04:41;12.10;99.90
13798;DHT22;6970;51.340;3.240;2024-01-30T09:07:11;11.90;99.90
13798;DHT22;6970;51.340;3.240;2024-01-30T09:09:43;11.60;99.90
13798;DHT22;6970;51.340;3.240;2024-01-30T09:12:13;11.50;99.90
13798;DHT22;6970;51.340;3.240;2024-01-30T09:14:47;11.30;99.90
13798;DHT22;6970;51.340;3.240;2024-01-30T09:17:22;11.20;99.90
13798;DHT22;6970;51.340;3.240;2024-01-30T09:19:50;11.00;99.90
13798;DHT22;6970;51.340;3.240;2024-01-30T09:22:18;11.00;99.90
13798;DHT22;6970;51.340;3.240;2024-01-30T09:24:47;10.90;99.90
13798;DHT22;6970;51.340;3.240;2024-01-30T09:27:17;10.80;99.90
13798;DHT22;6970;51.340;3.240;2024-01-30T09:29:47;10.70;99.90
13798;DHT22;6970;51.340;3.240;2024-01-30T09:32:14;10.70;99.90
13798;DHT22;6970;51.340;3.240;2024-01-30T09:34:44;10.70;99.90
13798;DHT22;6970;51.340;3.240;2024-01-30T09:37:13;10.70;99.90
13798;DHT22;6970;51.340;3.240;2024-01-30T09:39:45;10.60;99.90
13798;DHT22;6970;51.340;3.240;2024-01-30T09:42:26;10.60;99.90
13798;DHT22;6970;51.340;3.240;2024-01-30T09:44:55;10.60;99.90
13798;DHT22;6970;51.340;3.240;2024-01-30T09:47:22;10.70;99.90
13798;DHT22;6970;51.340;3.240;2024-01-30T09:49:51;10.60;99.90
13798;DHT22;6970;51.340;3.240;2024-01-30T09:52:19;10.60;99.90
13798;DHT22;6970;51.340;3.240;2024-01-30T09:54:47;10.70;99.90
13798;DHT22;6970;51.340;3.240;2024-01-30T09:57:18;10.70;99.90
13798;DHT22;6970;51.340;3.240;2024-01-30T09:59:48;10.70;99.90
13798;DHT22;6970;51.340;3.240;2024-01-30T10:02:21;10.70;99.90
13798;DHT22;6970;51.340;3.240;2024-01-30T10:04:51;10.70;99.90
13798;DHT22;6970;51.340;3.240;2024-01-30T10:07:21;10.70;99.90
13798;DHT22;6970;51.340;3.240;2024-01-30T10:09:53;10.60;99.90
13798;DHT22;6970;51.340;3.240;2024-01-30T10:12:20;10.60;99.90
13798;DHT22;6970;51.340;3.240;2024-01-30T10:14:49;10.60;99.90
13798;DHT22;6970;51.340;3.240;2024-01-30T10:17:19;10.50;99.90
13798;DHT22;6970;51.340;3.240;2024-01-30T10:19:59;10.50;99.90
13798;DHT22;6970;51.340;3.240;2024-01-30T10:22:28;10.50;99.90
13798;DHT22;6970;51.340;3.240;2024-01-30T10:25:00;10.50;99.90
13798;DHT22;6970;51.340;3.240;2024-01-30T10:27:32;10.40;99.90
13798;DHT22;6970;51.340;3.240;2024-01-30T10:29:59;10.30;99.90
13798;DHT22;6970;51.340;3.240;2024-01-30T10:32:27;10.30;99.90
13798;DHT22;6970;51.340;3.240;2024-01-30T10:34:55;10.30;99.90
13798;DHT22;6970;51.340;3.240;2024-01-30T10:37:25;10.30;99.90
13798;DHT22;6970;51.340;3.240;2024-01-30T10:40:03;10.20;99.90
13798;DHT22;6970;51.340;3.240;2024-01-30T10:42:36;10.10;99.90
13798;DHT22;6970;51.340;3.240;2024-01-30T10:45:14;10.10;99.90
13798;DHT22;6970;51.340;3.240;2024-01-30T10:47:55;10.10;99.90
13798;DHT22;6970;51.340;3.240;2024-01-30T10:50:29;10.10;99.90
13798;DHT22;6970;51.340;3.240;2024-01-30T10:52:58;10.10;99.90
13798;DHT22;6970;51.340;3.240;2024-01-30T10:55:29;10.10;99.90
13798;DHT22;6970;51.340;3.240;2024-01-30T10:57:56;10.10;99.90
13798;DHT22;6970;51.340;3.240;2024-01-30T11:00:30;10.10;99.90
13798;DHT22;6970;51.340;3.240;2024-01-30T11:03:01;10.10;99.90
13798;DHT22;6970;51.340;3.240;2024-01-30T11:05:28;10.10;99.90
13798;DHT22;6970;51.340;3.240;2024-01-30T11:08:13;10.10;99.90
13798;DHT22;6970;51.340;3.240;2024-01-30T11:10:54;10.10;99.90
13798;DHT22;6970;51.340;3.240;2024-01-30T11:13:22;10.10;99.90
13798;DHT22;6970;51.340;3.240;2024-01-30T11:15:52;10.10;99.90
13798;DHT22;6970;51.340;3.240;2024-01-30T11:18:29;10.00;99.90
13798;DHT22;6970;51.340;3.240;2024-01-30T11:20:58;10.00;99.90
13798;DHT22;6970;51.340;3.240;2024-01-30T11:23:28;9.90;99.90
13798;DHT22;6970;51.340;3.240;2024-01-30T11:25:59;9.90;99.90
13798;DHT22;6970;51.340;3.240;2024-01-30T11:28:33;9.90;99.90
13798;DHT22;6970;51.340;3.240;2024-01-30T11:31:18;9.80;99.90
13798;DHT22;6970;51.340;3.240;2024-01-30T11:33:46;9.80;99.90
13798;DHT22;6970;51.340;3.240;2024-01-30T11:36:13;9.80;99.90
13798;DHT22;6970;51.340;3.240;2024-01-30T11:38:45;9.80;99.90
13798;DHT22;6970;51.340;3.240;2024-01-30T11:41:17;9.80;99.90
13798;DHT22;6970;51.340;3.240;2024-01-30T11:43:52;9.90;99.90
13798;DHT22;6970;51.340;3.240;2024-01-30T11:46:21;9.90;99.90
13798;DHT22;6970;51.340;3.240;2024-01-30T11:48:51;9.90;99.90
13798;DHT22;6970;51.340;3.240;2024-01-30T11:51:20;9.80;99.90
13798;DHT22;6970;51.340;3.240;2024-01-30T11:53:50;9.80;99.90
13798;DHT22;6970;51.340;3.240;2024-01-30T11:56:21;9.80;99.90
13798;DHT22;6970;51.340;3.240;2024-01-30T11:58:51;9.90;99.90
13798;DHT22;6970;51.340;3.240;2024-01-30T12:01:22;9.90;99.90
13798;DHT22;6970;51.340;3.240;2024-01-30T12:03:52;9.90;99.90
13798;DHT22;6970;51.340;3.240;2024-01-30T12:06:23;10.00;99.90
13798;DHT22;6970;51.340;3.240;2024-01-30T12:09:01;10.00;99.90
13798;DHT22;6970;51.340;3.240;2024-01-30T12:11:31;10.00;99.90
13798;DHT22;6970;51.340;3.240;2024-01-30T12:13:59;10.00;99.90
13798;DHT22;6970;51.340;3.240;2024-01-30T12:16:28;10.00;99.90
13798;DHT22;6970;51.340;3.240;2024-01-30T12:19:01;10.00;99.90
13798;DHT22;6970;51.340;3.240;2024-01-30T12:21:33;10.00;99.90
13798;DHT22;6970;51.340;3.240;2024-01-30T12:24:00;10.00;99.90
13798;DHT22;6970;51.340;3.240;2024-01-30T12:26:28;10.00;99.90
13798;DHT22;6970;51.340;3.240;2024-01-30T12:28:57;10.00;99.90
13798;DHT22;6970;51.340;3.240;2024-01-30T12:31:32;10.00;99.90
13798;DHT22;6970;51.340;3.240;2024-01-30T12:34:00;10.00;99.90
13798;DHT22;6970;51.340;3.240;2024-01-30T12:36:28;10.00;99.90
13798;DHT22;6970;51.340;3.240;2024-01-30T12:38:59;10.00;99.90
13798;DHT22;6970;51.340;3.240;2024-01-30T12:41:29;10.00;99.90
13798;DHT22;6970;51.340;3.240;2024-01-30T12:43:57;10.00;99.90
13798;DHT22;6970;51.340;3.240;2024-01-30T12:46:28;9.90;99.90
13798;DHT22;6970;51.340;3.240;2024-01-30T12:48:59;9.90;99.90
13798;DHT22;6970;51.340;3.240;2024-01-30T12:51:27;9.90;99.90
13798;DHT22;6970;51.340;3.240;2024-01-30T12:53:57;9.80;99.90
13798;DHT22;6970;51.340;3.240;2024-01-30T12:56:28;9.80;99.90
13798;DHT22;6970;51.340;3.240;2024-01-30T12:58:58;9.80;99.90
13798;DHT22;6970;51.340;3.240;2024-01-30T13:01:25;9.80;99.90
13798;DHT22;6970;51.340;3.240;2024-01-30T13:03:55;9.80;99.90
13798;DHT22;6970;51.340;3.240;2024-01-30T13:06:26;9.70;99.90
13798;DHT22;6970;51.340;3.240;2024-01-30T13:08:56;9.70;99.90
13798;DHT22;6970;51.340;3.240;2024-01-30T13:11:25;9.70;99.90
13798;DHT22;6970;51.340;3.240;2024-01-30T13:13:53;9.70;99.90
13798;DHT22;6970;51.340;3.240;2024-01-30T13:16:22;9.60;99.90
13798;DHT22;6970;51.340;3.240;2024-01-30T13:18:53;9.60;99.90
13798;DHT22;6970;51.340;3.240;2024-01-30T13:21:22;9.50;99.90
13798;DHT22;6970;51.340;3.240;2024-01-30T13:23:52;9.50;99.90
13798;DHT22;6970;51.340;3.240;2024-01-30T13:26:21;9.50;99.90
13798;DHT22;6970;51.340;3.240;2024-01-30T13:28:51;9.50;99.90
13798;DHT22;6970;51.340;3.240;2024-01-30T13:31:19;9.50;99.90
13798;DHT22;6970;51.340;3.240;2024-01-30T13:33:52;9.40;99.90
13798;DHT22;6970;51.340;3.240;2024-01-30T13:36:19;9.40;99.90
13798;DHT22;6970;51.340;3.240;2024-01-30T13:38:46;9.30;99.90
13798;DHT22;6970;51.340;3.240;2024-01-30T13:41:14;9.30;99.90
13798;DHT22;6970;51.340;3.240;2024-01-30T13:43:44;9.30;99.90
13798;DHT22;6970;51.340;3.240;2024-01-30T13:46:14;9.30;99.90
13798;DHT22;6970;51.340;3.240;2024-01-30T13:48:44;9.30;99.90
13798;DHT22;6970;51.340;3.240;2024-01-30T13:51:14;9.30;99.90
13798;DHT22;6970;51.340;3.240;2024-01-30T13:53:43;9.30;99.90
13798;DHT22;6970;51.340;3.240;2024-01-30T13:56:13;9.30;99.90
13798;DHT22;6970;51.340;3.240;2024-01-30T13:58:44;9.30;99.90
13798;DHT22;6970;51.340;3.240;2024-01-30T14:01:13;9.30;99.90
13798;DHT22;6970;51.340;3.240;2024-01-30T14:03:42;9.30;99.90
13798;DHT22;6970;51.340;3.240;2024-01-30T14:06:13;9.20;99.90
13798;DHT22;6970;51.340;3.240;2024-01-30T14:08:40;9.30;99.90
13798;DHT22;6970;51.340;3.240;2024-01-30T14:11:12;9.30;99.90
13798;DHT22;6970;51.340;3.240;2024-01-30T14:13:41;9.30;99.90
13798;DHT22;6970;51.340;3.240;2024-01-30T14:16:08;9.30;99.90
13798;DHT22;6970;51.340;3.240;2024-01-30T14:18:35;9.30;99.90
13798;DHT22;6970;51.340;3.240;2024-01-30T14:21:05;9.30;99.90
13798;DHT22;6970;51.340;3.240;2024-01-30T14:23:37;9.30;99.90
13798;DHT22;6970;51.340;3.240;2024-01-30T14:26:07;9.30;99.90
13798;DHT22;6970;51.340;3.240;2024-01-30T14:28:36;9.40;99.90
13798;DHT22;6970;51.340;3.240;2024-01-30T14:31:04;9.40;99.90
13798;DHT22;6970;51.340;3.240;2024-01-30T14:33:32;9.40;99.90
13798;DHT22;6970;51.340;3.240;2024-01-30T14:35:59;9.40;99.90
13798;DHT22;6970;51.340;3.240;2024-01-30T14:38:26;9.50;99.90
13798;DHT22;6970;51.340;3.240;2024-01-30T14:40:57;9.40;99.90
13798;DHT22;6970;51.340;3.240;2024-01-30T14:43:25;9.40;99.90
13798;DHT22;6970;51.340;3.240;2024-01-30T14:45:53;9.40;99.90
13798;DHT22;6970;51.340;3.240;2024-01-30T14:48:23;9.40;99.90
13798;DHT22;6970;51.340;3.240;2024-01-30T14:50:53;9.40;99.90
13798;DHT22;6970;51.340;3.240;2024-01-30T14:53:21;9.30;99.90
13798;DHT22;6970;51.340;3.240;2024-01-30T14:55:51;9.30;99.90
13798;DHT22;6970;51.340;3.240;2024-01-30T14:58:18;9.30;99.90
13798;DHT22;6970;51.340;3.240;2024-01-30T15:00:46;9.30;99.90
13798;DHT22;6970;51.340;3.240;2024-01-30T15:03:14;9.20;99.90
13798;DHT22;6970;51.340;3.240;2024-01-30T15:05:41;9.20;99.90
13798;DHT22;6970;51.340;3.240;2024-01-30T15:08:08;9.30;99.90
13798;DHT22;6970;51.340;3.240;2024-01-30T15:10:36;9.20;99.90
13798;DHT22;6970;51.340;3.240;2024-01-30T15:13:10;9.20;99.90
13798;DHT22;6970;51.340;3.240;2024-01-30T15:15:44;9.20;99.90
13798;DHT22;6970;51.340;3.240;2024-01-30T15:18:11;9.20;99.90
13798;DHT22;6970;51.340;3.240;2024-01-30T15:20:38;9.20;99.90
13798;DHT22;6970;51.340;3.240;2024-01-30T15:23:05;9.20;99.90
13798;DHT22;6970;51.340;3.240;2024-01-30T15:25:35;9.20;99.90
13798;DHT22;6970;51.340;3.240;2024-01-30T15:28:02;9.20;99.90
13798;DHT22;6970;51.340;3.240;2024-01-30T15:30:32;9.20;99.90
13798;DHT22;6970;51.340;3.240;2024-01-30T15:32:59;9.20;99.90
13798;DHT22;6970;51.340;3.240;2024-01-30T15:35:27;9.20;99.90
13798;DHT22;6970;51.340;3.240;2024-01-30T15:37:57;9.20;99.90
13798;DHT22;6970;51.340;3.240;2024-01-30T15:40:25;9.20;99.90
13798;DHT22;6970;51.340;3.240;2024-01-30T15:42:55;9.10;99.90
13798;DHT22;6970;51.340;3.240;2024-01-30T15:45:26;9.20;99.90
13798;DHT22;6970;51.340;3.240;2024-01-30T15:47:57;9.20;99.90
13798;DHT22;6970;51.340;3.240;2024-01-30T15:50:28;9.10;99.90
13798;DHT22;6970;51.340;3.240;2024-01-30T15:52:56;9.10;99.90
13798;DHT22;6970;51.340;3.240;2024-01-30T15:55:25;9.10;99.90
13798;DHT22;6970;51.340;3.240;2024-01-30T15:57:53;9.00;99.90
13798;DHT22;6970;51.340;3.240;2024-01-30T16:00:23;9.00;99.90
13798;DHT22;6970;51.340;3.240;2024-01-30T16:02:53;9.00;99.90
13798;DHT22;6970;51.340;3.240;2024-01-30T16:05:22;9.00;99.90